createdAt,value
2023-02-13T00:00:44.816Z,103893.25
2023-02-13T00:03:12.212Z,103885.38
2023-02-13T00:05:39.516Z,103890.63
2023-02-13T00:08:06.902Z,103892.34
2023-02-13T00:10:34.271Z,103883.59
2023-02-13T00:13:01.529Z,103878.34
2023-02-13T00:15:28.834Z,103888.81
2023-02-13T00:17:56.294Z,103888.81
2023-02-13T00:20:23.879Z,103879.84
2023-02-13T00:22:51.147Z,103888.59
2023-02-13T00:25:18.541Z,103884.16
2023-02-13T00:27:45.990Z,103884.16
2023-02-13T00:30:13.957Z,103883.13
2023-02-13T00:32:41.185Z,103874.50
2023-02-13T00:35:08.812Z,103884.97
2023-02-13T00:37:36.126Z,103884.97
2023-02-13T00:40:04.015Z,103889.31
2023-02-13T00:42:31.444Z,103881.44
2023-02-13T00:44:58.914Z,103882.22
2023-02-13T00:47:26.231Z,103887.59
2023-02-13T00:49:53.474Z,103883.13
2023-02-13T00:52:20.766Z,103878.72
2023-02-13T00:54:48.331Z,103875.19
2023-02-13T00:57:15.561Z,103868.91
2023-02-13T00:59:43.689Z,103866.22
2023-02-13T01:02:10.934Z,103857.34
2023-02-13T01:04:40.037Z,103866.09
2023-02-13T01:07:07.326Z,103872.25
2023-02-13T01:09:35.547Z,103867.81
2023-02-13T01:12:02.962Z,103868.59
2023-02-13T01:14:30.634Z,103871.22
2023-02-13T01:16:57.883Z,103867.72
2023-02-13T01:19:25.796Z,103863.25
2023-02-13T01:21:53.157Z,103871.00
2023-02-13T01:24:20.519Z,103854.28
2023-02-13T01:26:47.785Z,103866.47
2023-02-13T01:29:15.059Z,103857.72
2023-02-13T01:31:42.547Z,103853.25
2023-02-13T01:34:09.971Z,103858.50
2023-02-13T01:36:37.232Z,103856.69
2023-02-13T01:39:04.470Z,103855.75
2023-02-13T01:41:31.891Z,103853.94
2023-02-13T01:44:01.906Z,103856.69
2023-02-13T01:46:47.325Z,103863.63
2023-02-13T01:49:25.763Z,103853.03
2023-02-13T01:51:55.763Z,103865.19
2023-02-13T01:54:31.164Z,103861.66
2023-02-13T01:57:07.400Z,103851.19
2023-02-13T01:59:41.430Z,103849.41
2023-02-13T02:02:08.858Z,103849.41
2023-02-13T02:04:39.253Z,103859.88
2023-02-13T02:07:17.866Z,103842.22
2023-02-13T02:09:48.315Z,103851.69
2023-02-13T02:12:33.077Z,103854.06
2023-02-13T02:15:03.459Z,103851.44
2023-02-13T02:17:32.889Z,103850.66
2023-02-13T02:20:50.382Z,103841.22
2023-02-13T02:23:17.745Z,103837.81
2023-02-13T02:25:51.053Z,103838.59
2023-02-13T02:28:55.457Z,103836.88
2023-02-13T02:32:00.036Z,103830.84
2023-02-13T02:35:05.711Z,103838.72
2023-02-13T02:37:57.438Z,103835.97
2023-02-13T02:40:26.381Z,103833.34
2023-02-13T02:43:25.904Z,103822.78
2023-02-13T02:46:36.177Z,103817.53
2023-02-13T02:49:51.692Z,103810.41
2023-02-13T02:52:23.864Z,103813.91
2023-02-13T02:55:06.570Z,103805.94
2023-02-13T02:58:06.826Z,103806.88
2023-02-13T03:00:56.339Z,103802.44
2023-02-13T03:03:44.353Z,103809.56
2023-02-13T03:06:17.539Z,103799.09
2023-02-13T03:09:10.806Z,103803.44
2023-02-13T03:11:57.651Z,103799.94
2023-02-13T03:14:28.354Z,103792.97
2023-02-13T03:17:36.081Z,103799.81
2023-02-13T03:20:26.811Z,103794.59
2023-02-13T03:22:59.789Z,103789.22
2023-02-13T03:25:35.926Z,103801.41
2023-02-13T03:28:29.829Z,103796.06
2023-02-13T03:31:33.308Z,103792.56
2023-02-13T03:34:05.973Z,103796.88
2023-02-13T03:37:10.213Z,103796.88
2023-02-13T03:40:05.629Z,103800.28
2023-02-13T03:42:45.173Z,103799.41
2023-02-13T03:45:39.592Z,103805.41
2023-02-13T03:48:30.012Z,103808.03
2023-02-13T03:51:00.235Z,103816.69
2023-02-13T03:53:31.630Z,103808.03
2023-02-13T03:56:18.838Z,103809.84
2023-02-13T03:59:13.440Z,103808.84
2023-02-13T04:01:44.849Z,103814.09
2023-02-13T04:04:39.534Z,103813.16
2023-02-13T04:07:32.013Z,103815.75
2023-02-13T04:10:04.302Z,103810.53
2023-02-13T04:12:53.783Z,103819.91
2023-02-13T04:16:12.004Z,103818.97
2023-02-13T04:18:39.988Z,103816.34
2023-02-13T04:21:08.799Z,103813.63
2023-02-13T04:23:37.123Z,103817.16
2023-02-13T04:26:09.091Z,103819.66
2023-02-13T04:28:36.483Z,103811.81
2023-02-13T04:31:03.860Z,103818.78
2023-02-13T04:33:31.265Z,103817.84
2023-02-13T04:35:58.607Z,103818.66
2023-02-13T04:38:25.846Z,103825.59
2023-02-13T04:40:53.208Z,103819.38
2023-02-13T04:43:20.440Z,103818.44
2023-02-13T04:45:51.505Z,103821.88
2023-02-13T04:48:18.773Z,103814.00
2023-02-13T04:50:46.067Z,103814.81
2023-02-13T04:53:13.413Z,103805.16
2023-02-13T04:55:41.078Z,103799.91
2023-02-13T04:58:08.334Z,103806.84
2023-02-13T05:00:35.690Z,103800.69
2023-02-13T05:03:11.933Z,103803.31
2023-02-13T05:05:41.195Z,103812.88
2023-02-13T05:08:09.402Z,103807.53
2023-02-13T05:10:37.043Z,103807.53
2023-02-13T05:13:04.461Z,103813.66
2023-02-13T05:15:31.913Z,103810.94
2023-02-13T05:17:59.659Z,103811.75
2023-02-13T05:20:26.947Z,103816.97
2023-02-13T05:23:13.679Z,103813.47
2023-02-13T05:25:42.187Z,103816.97
2023-02-13T05:28:29.523Z,103816.97
2023-02-13T05:30:57.474Z,103816.97
2023-02-13T05:33:25.551Z,103821.19
2023-02-13T05:35:52.853Z,103815.97
2023-02-13T05:38:20.099Z,103819.47
2023-02-13T05:40:47.330Z,103813.34
2023-02-13T05:43:14.613Z,103816.88
2023-02-13T05:45:41.936Z,103821.19
2023-02-13T05:48:09.260Z,103814.13
2023-02-13T05:50:36.695Z,103814.97
2023-02-13T05:53:04.083Z,103814.84
2023-02-13T05:55:33.402Z,103812.34
2023-02-13T05:58:00.884Z,103822.81
2023-02-13T06:00:28.201Z,103814.97
2023-02-13T06:02:55.500Z,103816.63
2023-02-13T06:05:22.741Z,103825.41
2023-02-13T06:07:50.046Z,103835.88
2023-02-13T06:10:17.368Z,103828.81
2023-02-13T06:12:44.586Z,103826.19
2023-02-13T06:15:11.974Z,103828.81
2023-02-13T06:17:39.272Z,103838.38
2023-02-13T06:20:07.349Z,103837.47
2023-02-13T06:22:34.625Z,103841.91
2023-02-13T06:25:02.139Z,103848.84
2023-02-13T06:27:29.443Z,103845.22
2023-02-13T06:29:56.760Z,103854.66
2023-02-13T06:32:24.154Z,103858.06
2023-02-13T06:34:51.439Z,103862.38
2023-02-13T06:37:18.804Z,103864.19
2023-02-13T06:39:46.236Z,103868.50
2023-02-13T06:42:13.515Z,103861.47
2023-02-13T06:44:40.838Z,103863.97
2023-02-13T06:47:08.072Z,103864.75
2023-02-13T06:49:35.233Z,103865.56
2023-02-13T06:52:02.666Z,103870.00
2023-02-13T06:54:45.998Z,103870.94
2023-02-13T06:57:14.756Z,103869.22
2023-02-13T06:59:42.685Z,103873.63
2023-02-13T07:02:13.640Z,103866.59
2023-02-13T07:04:41.174Z,103873.63
2023-02-13T07:07:08.373Z,103873.63
2023-02-13T07:09:35.860Z,103875.47
2023-02-13T07:12:04.611Z,103873.88
2023-02-13T07:14:32.234Z,103868.63
2023-02-13T07:16:59.654Z,103868.63
2023-02-13T07:19:27.517Z,103864.19
2023-02-13T07:21:55.019Z,103859.78
2023-02-13T07:24:23.167Z,103860.47
2023-02-13T07:26:50.435Z,103865.78
2023-02-13T07:29:17.729Z,103860.47
2023-02-13T07:31:45.182Z,103858.75
2023-02-13T07:34:12.469Z,103861.56
2023-02-13T07:36:39.679Z,103859.88
2023-02-13T07:39:07.208Z,103861.69
2023-02-13T07:41:41.198Z,103858.28
2023-02-13T07:44:09.398Z,103853.84
2023-02-13T07:46:37.417Z,103852.25
2023-02-13T07:49:04.721Z,103854.19
2023-02-13T07:51:32.031Z,103860.44
2023-02-13T07:53:59.397Z,103864.97
2023-02-13T07:56:26.643Z,103868.59
2023-02-13T07:58:53.957Z,103863.50
2023-02-13T08:01:21.235Z,103869.72
2023-02-13T08:03:50.977Z,103868.13
2023-02-13T08:06:20.170Z,103869.97
2023-02-13T08:08:47.688Z,103878.59
2023-02-13T08:11:49.954Z,103871.69
2023-02-13T08:14:17.318Z,103877.81
2023-02-13T08:16:44.613Z,103875.19
2023-02-13T08:19:12.495Z,103873.47
2023-02-13T08:21:40.691Z,103874.50
2023-02-13T08:24:08.135Z,103880.75
2023-02-13T08:26:36.085Z,103882.69
2023-02-13T08:29:04.380Z,103881.56
2023-02-13T08:31:31.873Z,103889.50
2023-02-13T08:33:59.370Z,103886.88
2023-02-13T08:36:26.729Z,103884.19
2023-02-13T08:38:54.042Z,103891.09
2023-02-13T08:41:22.308Z,103895.53
2023-02-13T08:43:50.448Z,103893.94
2023-02-13T08:46:18.101Z,103893.06
2023-02-13T08:48:45.508Z,103894.84
2023-02-13T08:51:14.925Z,103892.34
2023-02-13T08:53:42.659Z,103893.38
2023-02-13T08:56:11.448Z,103891.75
2023-02-13T08:58:38.961Z,103895.41
2023-02-13T09:01:08.100Z,103892.13
2023-02-13T09:03:36.497Z,103895.84
2023-02-13T09:06:04.101Z,103897.00
2023-02-13T09:08:31.424Z,103891.06
2023-02-13T09:11:01.397Z,103891.06
2023-02-13T09:13:37.098Z,103889.34
2023-02-13T09:16:06.660Z,103891.06
2023-02-13T09:18:35.217Z,103886.72
2023-02-13T09:21:05.392Z,103889.44
2023-02-13T09:23:34.504Z,103893.19
2023-02-13T09:26:04.074Z,103895.16
2023-02-13T09:28:33.287Z,103893.53
2023-02-13T09:31:04.629Z,103894.66
2023-02-13T09:33:31.975Z,103894.56
2023-02-13T09:35:59.772Z,103894.78
2023-02-13T09:38:27.057Z,103893.31
2023-02-13T09:41:00.729Z,103890.78
2023-02-13T09:43:30.128Z,103898.75
2023-02-13T09:46:12.766Z,103894.41
2023-02-13T09:48:45.222Z,103895.44
2023-02-13T09:51:18.352Z,103895.75
2023-02-13T09:53:55.587Z,103892.47
2023-02-13T09:56:35.028Z,103890.03
2023-02-13T09:59:50.903Z,103890.97
2023-02-13T10:02:42.572Z,103891.84
2023-02-13T10:05:30.817Z,103894.47
2023-02-13T10:08:04.136Z,103898.13
2023-02-13T10:10:46.554Z,103894.00
2023-02-13T10:13:29.932Z,103896.84
2023-02-13T10:16:12.595Z,103901.97
2023-02-13T10:19:03.213Z,103897.50
2023-02-13T10:21:35.909Z,103898.41
2023-02-13T10:24:22.164Z,103898.41
2023-02-13T10:26:49.490Z,103887.94
2023-02-13T10:29:50.632Z,103890.91
2023-02-13T10:32:22.600Z,103888.38
2023-02-13T10:34:53.578Z,103888.47
2023-02-13T10:37:22.428Z,103888.56
2023-02-13T10:39:53.353Z,103889.59
2023-02-13T10:42:30.946Z,103887.09
2023-02-13T10:45:09.297Z,103889.03
2023-02-13T10:47:49.314Z,103891.53
2023-02-13T10:50:40.870Z,103888.91
2023-02-13T10:53:48.033Z,103892.31
2023-02-13T10:56:23.296Z,103884.47
2023-02-13T10:59:05.827Z,103882.19
2023-02-13T11:01:48.268Z,103886.72
2023-02-13T11:04:19.049Z,103880.69
2023-02-13T11:07:02.250Z,103880.75
2023-02-13T11:09:37.018Z,103875.75
2023-02-13T11:12:24.269Z,103875.75
2023-02-13T11:14:57.451Z,103873.91
2023-02-13T11:17:26.881Z,103873.00
2023-02-13T11:20:00.632Z,103868.59
2023-02-13T11:22:33.486Z,103878.34
2023-02-13T11:25:17.095Z,103873.13
2023-02-13T11:27:46.266Z,103865.97
2023-02-13T11:30:28.859Z,103860.63
2023-02-13T11:33:06.657Z,103856.06
2023-02-13T11:35:37.688Z,103867.25
2023-02-13T11:38:18.243Z,103861.22
2023-02-13T11:41:08.340Z,103847.28
2023-02-13T11:43:49.509Z,103858.91
2023-02-13T11:46:23.254Z,103852.94
2023-02-13T11:49:05.834Z,103852.25
2023-02-13T11:51:44.080Z,103853.50
2023-02-13T11:54:37.370Z,103847.66
2023-02-13T11:57:34.949Z,103834.16
2023-02-13T12:00:30.247Z,103836.25
2023-02-13T12:02:57.952Z,103831.09
2023-02-13T12:05:27.982Z,103828.59
2023-02-13T12:08:01.994Z,103820.94
2023-02-13T12:10:33.249Z,103830.81
2023-02-13T12:13:21.030Z,103833.56
2023-02-13T12:15:56.407Z,103826.31
2023-02-13T12:18:30.185Z,103825.25
2023-02-13T12:21:15.771Z,103817.50
2023-02-13T12:24:12.416Z,103819.63
2023-02-13T12:26:53.493Z,103811.75
2023-02-13T12:29:23.494Z,103816.00
2023-02-13T12:31:55.422Z,103802.88
2023-02-13T12:34:54.921Z,103797.66
2023-02-13T12:37:38.703Z,103798.47
2023-02-13T12:40:38.352Z,103801.78
2023-02-13T12:43:33.850Z,103795.53
2023-02-13T12:46:01.079Z,103796.41
2023-02-13T12:48:34.253Z,103796.41
2023-02-13T12:51:29.637Z,103797.47
2023-02-13T12:54:15.095Z,103791.59
2023-02-13T12:56:48.182Z,103789.00
2023-02-13T12:59:30.146Z,103785.66
2023-02-13T13:02:10.248Z,103778.78
2023-02-13T13:05:05.162Z,103775.56
2023-02-13T13:07:54.520Z,103780.78
2023-02-13T13:10:28.761Z,103781.09
2023-02-13T13:13:04.244Z,103783.91
2023-02-13T13:16:25.036Z,103782.59
2023-02-13T13:19:10.369Z,103772.38
2023-02-13T13:22:02.428Z,103772.81
2023-02-13T13:24:42.088Z,103773.69
2023-02-13T13:27:36.633Z,103766.72
2023-02-13T13:30:13.868Z,103763.31
2023-02-13T13:32:43.168Z,103765.94
2023-02-13T13:35:17.122Z,103758.75
2023-02-13T13:38:02.655Z,103755.34
2023-02-13T13:40:32.881Z,103751.19
2023-02-13T13:43:20.825Z,103757.56
2023-02-13T13:45:56.598Z,103754.94
2023-02-13T13:48:59.424Z,103752.41
2023-02-13T13:51:27.058Z,103753.41
2023-02-13T13:54:00.411Z,103742.09
2023-02-13T13:56:53.467Z,103739.28
2023-02-13T13:59:37.625Z,103746.06
2023-02-13T14:02:17.154Z,103742.59
2023-02-13T14:05:17.216Z,103742.59
2023-02-13T14:07:46.277Z,103735.34
2023-02-13T14:10:25.503Z,103734.34
2023-02-13T14:12:55.829Z,103736.88
2023-02-13T14:15:38.330Z,103731.72
2023-02-13T14:18:14.778Z,103726.69
2023-02-13T14:20:44.342Z,103719.88
2023-02-13T14:23:38.692Z,103717.56
2023-02-13T14:26:18.102Z,103716.84
2023-02-13T14:28:51.236Z,103733.59
2023-02-13T14:31:29.711Z,103717.94
2023-02-13T14:34:00.802Z,103716.22
2023-02-13T14:36:40.823Z,103716.44
2023-02-13T14:39:26.038Z,103716.44
2023-02-13T14:41:55.788Z,103718.25
2023-02-13T14:44:46.837Z,103712.81
2023-02-13T14:47:28.620Z,103709.97
2023-02-13T14:49:57.747Z,103709.91
2023-02-13T14:52:46.287Z,103708.06
2023-02-13T14:55:35.186Z,103716.84
2023-02-13T14:58:22.148Z,103714.22
2023-02-13T15:01:30.549Z,103714.22
2023-02-13T15:04:05.765Z,103720.41
2023-02-13T15:06:39.579Z,103721.19
2023-02-13T15:09:37.953Z,103714.22
2023-02-13T15:12:24.766Z,103706.44
2023-02-13T15:14:52.059Z,103710.91
2023-02-13T15:17:26.928Z,103698.38
2023-02-13T15:19:58.972Z,103703.63
2023-02-13T15:22:49.117Z,103710.59
2023-02-13T15:25:43.119Z,103698.38
2023-02-13T15:28:23.542Z,103694.97
2023-02-13T15:31:01.463Z,103693.44
2023-02-13T15:33:34.142Z,103696.06
2023-02-13T15:36:04.877Z,103690.91
2023-02-13T15:38:58.521Z,103687.34
2023-02-13T15:41:33.566Z,103685.66
2023-02-13T15:44:01.184Z,103688.19
2023-02-13T15:46:35.961Z,103683.66
2023-02-13T15:49:17.065Z,103680.13
2023-02-13T15:51:45.410Z,103680.94
2023-02-13T15:54:30.694Z,103680.00
2023-02-13T15:57:01.149Z,103674.69
2023-02-13T15:59:36.596Z,103684.09
2023-02-13T16:02:09.514Z,103683.91
2023-02-13T16:04:41.633Z,103682.09
2023-02-13T16:07:14.656Z,103678.38
2023-02-13T16:09:42.574Z,103678.19
2023-02-13T16:12:28.072Z,103674.56
2023-02-13T16:15:00.337Z,103664.78
2023-02-13T16:17:37.505Z,103679.50
2023-02-13T16:20:11.423Z,103677.59
2023-02-13T16:22:50.204Z,103681.03
2023-02-13T16:25:36.487Z,103685.28
2023-02-13T16:28:10.143Z,103689.50
2023-02-13T16:30:42.120Z,103688.50
2023-02-13T16:33:16.393Z,103691.84
2023-02-13T16:35:44.824Z,103691.75
2023-02-13T16:38:50.604Z,103696.81
2023-02-13T16:41:17.769Z,103697.63
2023-02-13T16:43:49.624Z,103687.91
2023-02-13T16:46:19.679Z,103691.25
2023-02-13T16:48:59.444Z,103699.84
2023-02-13T16:51:54.586Z,103701.47
2023-02-13T16:54:38.280Z,103703.88
2023-02-13T16:57:14.662Z,103693.28
2023-02-13T16:59:47.942Z,103696.63
2023-02-13T17:02:29.625Z,103694.72
2023-02-13T17:05:09.091Z,103698.94
2023-02-13T17:07:38.877Z,103692.63
2023-02-13T17:10:08.798Z,103691.59
2023-02-13T17:12:38.594Z,103695.03
2023-02-13T17:15:12.303Z,103697.56
2023-02-13T17:17:39.748Z,103697.56
2023-02-13T17:20:08.667Z,103696.66
2023-02-13T17:23:07.013Z,103708.88
2023-02-13T17:25:36.666Z,103702.69
2023-02-13T17:28:24.970Z,103705.31
2023-02-13T17:30:57.429Z,103700.91
2023-02-13T17:33:27.540Z,103700.91
2023-02-13T17:35:55.587Z,103699.06
2023-02-13T17:38:23.217Z,103702.50
2023-02-13T17:40:50.668Z,103703.41
2023-02-13T17:43:20.239Z,103697.28
2023-02-13T17:45:49.903Z,103697.28
2023-02-13T17:48:17.818Z,103696.34
2023-02-13T17:50:45.765Z,103690.09
2023-02-13T17:53:27.780Z,103690.94
2023-02-13T17:55:55.267Z,103689.81
2023-02-13T17:58:22.726Z,103687.97
2023-02-13T18:00:50.426Z,103686.19
2023-02-13T18:03:18.103Z,103689.59
2023-02-13T18:05:48.686Z,103685.19
2023-02-13T18:08:16.158Z,103686.69
2023-02-13T18:10:43.450Z,103681.25
2023-02-13T18:13:10.769Z,103683.56
2023-02-13T18:15:44.555Z,103678.13
2023-02-13T18:18:16.382Z,103676.91
2023-02-13T18:20:43.914Z,103674.78
2023-02-13T18:23:13.931Z,103670.06
2023-02-13T18:25:41.312Z,103676.72
2023-02-13T18:28:08.621Z,103671.06
2023-02-13T18:30:36.048Z,103665.41
2023-02-13T18:33:05.477Z,103665.00
2023-02-13T18:35:36.224Z,103661.03
2023-02-13T18:38:03.484Z,103661.44
2023-02-13T18:40:30.616Z,103660.09
2023-02-13T18:42:58.059Z,103657.97
2023-02-13T18:45:25.358Z,103656.63
2023-02-13T18:47:52.850Z,103662.47
2023-02-13T18:50:20.461Z,103666.41
2023-02-13T18:52:47.767Z,103667.66
2023-02-13T18:55:15.120Z,103657.56
2023-02-13T18:57:43.689Z,103664.09
2023-02-13T19:00:14.191Z,103666.28
2023-02-13T19:02:41.533Z,103664.03
2023-02-13T19:05:09.055Z,103665.41
2023-02-13T19:07:36.827Z,103664.09
2023-02-13T19:10:04.551Z,103675.94
2023-02-13T19:12:31.880Z,103674.47
2023-02-13T19:14:59.089Z,103674.94
2023-02-13T19:17:26.722Z,103681.44
2023-02-13T19:19:55.691Z,103691.56
2023-02-13T19:22:23.017Z,103682.47
2023-02-13T19:24:50.284Z,103692.56
2023-02-13T19:27:17.718Z,103691.22
2023-02-13T19:29:45.054Z,103689.97
2023-02-13T19:32:12.332Z,103692.28
2023-02-13T19:34:39.855Z,103684.00
2023-02-13T19:37:07.091Z,103680.13
2023-02-13T19:39:37.322Z,103679.88
2023-02-13T19:42:04.732Z,103677.84
2023-02-13T19:44:32.036Z,103686.25
2023-02-13T19:46:59.258Z,103692.81
2023-02-13T19:49:26.711Z,103688.19
2023-02-13T19:51:53.907Z,103686.91
2023-02-13T19:54:21.229Z,103685.91
2023-02-13T19:56:51.213Z,103689.97
2023-02-13T19:59:18.469Z,103696.66
2023-02-13T20:01:46.052Z,103692.91
2023-02-13T20:04:13.467Z,103697.09
2023-02-13T20:06:40.917Z,103696.91
2023-02-13T20:09:12.138Z,103701.09
2023-02-13T20:11:41.419Z,103692.91
2023-02-13T20:14:15.165Z,103695.16
2023-02-13T20:16:45.533Z,103686.19
2023-02-13T20:19:14.128Z,103682.31
2023-02-13T20:21:42.820Z,103686.41
2023-02-13T20:24:12.374Z,103685.16
2023-02-13T20:26:40.250Z,103688.19
2023-02-13T20:29:08.942Z,103693.16
2023-02-13T20:31:37.066Z,103695.66
2023-02-13T20:34:08.862Z,103694.50
2023-02-13T20:36:36.221Z,103696.88
2023-02-13T20:39:06.473Z,103695.06
2023-02-13T20:41:35.922Z,103693.00
2023-02-13T20:44:07.183Z,103697.19
2023-02-13T20:46:38.729Z,103691.72
2023-02-13T20:49:07.501Z,103695.91
2023-02-13T20:51:34.963Z,103694.22
2023-02-13T20:54:02.463Z,103695.91
2023-02-13T20:56:30.179Z,103689.81
2023-02-13T20:58:59.733Z,103688.09
2023-02-13T21:01:31.102Z,103684.47
2023-02-13T21:03:59.280Z,103693.19
2023-02-13T21:06:32.867Z,103686.41
2023-02-13T21:09:01.209Z,103689.00
2023-02-13T21:11:30.793Z,103694.00
2023-02-13T21:13:58.640Z,103691.94
2023-02-13T21:16:28.757Z,103686.47
2023-02-13T21:18:58.984Z,103683.63
2023-02-13T21:21:28.627Z,103686.09
2023-02-13T21:23:57.972Z,103681.44
2023-02-13T21:26:25.749Z,103682.13
2023-02-13T21:28:53.974Z,103680.28
2023-02-13T21:31:31.779Z,103685.50
2023-02-13T21:34:00.935Z,103690.38
2023-02-13T21:36:28.286Z,103680.63
2023-02-13T21:38:55.878Z,103686.47
2023-02-13T21:41:24.163Z,103687.16
2023-02-13T21:43:51.748Z,103689.63
2023-02-13T21:46:21.715Z,103686.78
2023-02-13T21:48:53.876Z,103685.88
2023-02-13T21:51:23.064Z,103688.34
2023-02-13T21:53:51.288Z,103687.31
2023-02-13T21:56:22.137Z,103689.69
2023-02-13T21:58:49.765Z,103681.63
2023-02-13T22:01:26.216Z,103688.28
2023-02-13T22:04:00.939Z,103679.31
2023-02-13T22:06:30.940Z,103690.53
2023-02-13T22:09:00.591Z,103685.31
2023-02-13T22:11:28.031Z,103681.69
2023-02-13T22:13:56.797Z,103673.63
2023-02-13T22:16:24.613Z,103660.59
2023-02-13T22:18:51.929Z,103669.44
2023-02-13T22:21:22.114Z,103662.41
2023-02-13T22:23:50.105Z,103665.69
2023-02-13T22:26:18.949Z,103665.56
2023-02-13T22:28:46.712Z,103666.09
2023-02-13T22:31:14.966Z,103657.25
2023-02-13T22:33:47.510Z,103664.03
2023-02-13T22:36:22.203Z,103665.63
2023-02-13T22:38:51.158Z,103668.22
2023-02-13T22:41:21.848Z,103671.59
2023-02-13T22:43:49.321Z,103674.09
2023-02-13T22:46:22.202Z,103674.72
2023-02-13T22:48:53.015Z,103672.94
2023-02-13T22:51:21.825Z,103674.59
2023-02-13T22:53:49.193Z,103682.31
2023-02-13T22:56:17.269Z,103675.28
2023-02-13T22:58:44.543Z,103669.94
2023-02-13T23:01:14.936Z,103671.66
2023-02-13T23:03:42.352Z,103662.94
2023-02-13T23:06:11.725Z,103663.56
2023-02-13T23:08:39.584Z,103672.06
2023-02-13T23:11:31.640Z,103668.28
2023-02-13T23:13:59.200Z,103668.28
2023-02-13T23:16:27.351Z,103664.66
2023-02-13T23:18:56.438Z,103655.00
2023-02-13T23:21:26.769Z,103655.81
2023-02-13T23:23:54.002Z,103656.72
2023-02-13T23:26:21.308Z,103655.00
2023-02-13T23:28:48.605Z,103656.72
2023-02-13T23:31:15.957Z,103652.31
2023-02-13T23:33:43.469Z,103654.09
2023-02-13T23:36:10.770Z,103652.66
2023-02-13T23:38:38.072Z,103647.94
2023-02-13T23:41:09.421Z,103650.53
2023-02-13T23:43:36.920Z,103656.34
2023-02-13T23:46:05.008Z,103648.78
2023-02-13T23:48:33.826Z,103654.22
2023-02-13T23:51:01.652Z,103660.59
2023-02-13T23:53:29.510Z,103653.25
2023-02-13T23:55:56.874Z,103658.72
2023-02-13T23:58:24.078Z,103656.91
